createdAt,value
2019-04-19T00:01:49.180Z,16.67
2019-04-19T00:04:16.194Z,16.60
2019-04-19T00:06:45.055Z,16.13
2019-04-19T00:09:28.394Z,16.63
2019-04-19T00:11:55.952Z,16.50
2019-04-19T00:14:16.999Z,17.20
2019-04-19T00:16:46.984Z,17.07
2019-04-19T00:19:35.149Z,16.93
2019-04-19T00:22:09.173Z,15.83
2019-04-19T00:24:16.729Z,16.30
2019-04-19T00:26:46.709Z,15.93
2019-04-19T00:29:21.970Z,16.97
2019-04-19T00:32:06.476Z,17.10
2019-04-19T00:34:16.618Z,16.20
2019-04-19T00:36:46.645Z,16.23
2019-04-19T00:39:38.466Z,16.53
2019-04-19T00:42:24.946Z,17.50
2019-04-19T00:45:01.539Z,16.50
2019-04-19T00:47:28.701Z,16.90
2019-04-19T00:49:52.662Z,17.20
2019-04-19T00:52:33.594Z,16.87
2019-04-19T00:54:52.080Z,17.77
2019-04-19T00:57:22.490Z,17.10
2019-04-19T00:59:45.456Z,15.97
2019-04-19T01:02:15.486Z,17.33
2019-04-19T01:04:41.566Z,16.07
2019-04-19T01:07:18.880Z,16.90
2019-04-19T01:09:56.299Z,17.23
2019-04-19T01:12:23.589Z,16.83
2019-04-19T01:15:00.971Z,15.80
2019-04-19T01:17:31.266Z,16.10
2019-04-19T01:19:52.991Z,31.40
2019-04-19T01:22:22.063Z,21.23
2019-04-19T01:24:49.571Z,16.90
2019-04-19T01:27:21.176Z,16.47
2019-04-19T01:29:51.600Z,16.67
2019-04-19T01:32:19.786Z,17.37
2019-04-19T01:34:54.378Z,18.40
2019-04-19T01:37:23.283Z,16.67
2019-04-19T01:40:05.818Z,16.30
2019-04-19T01:42:38.893Z,16.97
2019-04-19T01:45:06.024Z,16.90
2019-04-19T01:47:51.465Z,17.50
2019-04-19T01:50:18.381Z,17.13
2019-04-19T01:52:57.139Z,17.07
2019-04-19T01:55:16.812Z,17.13
2019-04-19T01:57:38.806Z,17.20
2019-04-19T02:00:12.657Z,16.20
2019-04-19T02:02:46.883Z,16.97
2019-04-19T02:05:15.048Z,16.33
2019-04-19T02:07:42.428Z,15.53
2019-04-19T02:10:57.767Z,16.10
2019-04-19T02:13:26.946Z,16.33
2019-04-19T02:15:51.330Z,16.73
2019-04-19T02:18:23.292Z,17.33
2019-04-19T02:20:49.986Z,16.70
2019-04-19T02:23:20.124Z,15.80
2019-04-19T02:25:51.650Z,17.60
2019-04-19T02:28:24.502Z,17.97
2019-04-19T02:31:08.976Z,17.10
2019-04-19T02:33:47.949Z,17.27
2019-04-19T02:36:15.556Z,17.90
2019-04-19T02:38:53.766Z,18.00
2019-04-19T02:48:54.182Z,20.20
2019-04-19T02:53:47.080Z,18.10
2019-04-19T02:59:21.140Z,17.87
2019-04-19T03:02:04.505Z,16.80
2019-04-19T03:06:36.745Z,16.40
2019-04-19T03:08:59.292Z,17.57
2019-04-19T03:11:41.281Z,17.53
2019-04-19T03:14:12.825Z,16.83
2019-04-19T03:16:48.007Z,17.20
2019-04-19T03:19:09.567Z,18.00
2019-04-19T03:21:43.295Z,17.63
2019-04-19T03:24:14.436Z,17.67
2019-04-19T03:26:41.540Z,16.97
2019-04-19T03:29:08.803Z,18.23
2019-04-19T03:31:59.072Z,22.60
2019-04-19T03:34:36.772Z,29.60
2019-04-19T03:36:47.603Z,21.13
2019-04-19T03:39:23.054Z,28.93
2019-04-19T03:44:32.196Z,18.00
2019-04-19T03:47:04.368Z,17.83
2019-04-19T03:52:08.588Z,17.50
2019-04-19T03:54:29.870Z,17.60
2019-04-19T03:57:00.657Z,17.60
2019-04-19T03:59:16.211Z,17.70
2019-04-19T04:01:49.895Z,16.90
2019-04-19T04:04:20.797Z,16.10
2019-04-19T04:06:46.214Z,16.93
2019-04-19T04:09:25.043Z,16.90
2019-04-19T04:12:03.283Z,16.50
2019-04-19T04:14:51.905Z,16.73
2019-04-19T04:17:05.830Z,17.80
2019-04-19T04:19:35.618Z,17.73
2019-04-19T04:22:07.700Z,17.00
2019-04-19T04:24:39.797Z,16.73
2019-04-19T04:27:14.134Z,16.33
2019-04-19T04:29:41.775Z,17.10
2019-04-19T04:32:15.544Z,17.60
2019-04-19T04:34:47.824Z,18.10
2019-04-19T04:37:24.857Z,16.20
2019-04-19T04:39:36.903Z,15.67
2019-04-19T04:42:15.683Z,16.00
2019-04-19T04:45:01.847Z,17.20
2019-04-19T04:47:28.671Z,17.20
2019-04-19T04:50:17.014Z,16.30
2019-04-19T04:52:31.875Z,17.00
2019-04-19T04:54:58.957Z,16.80
2019-04-19T04:57:41.682Z,16.80
2019-04-19T05:00:03.326Z,17.80
2019-04-19T05:02:48.651Z,16.27
2019-04-19T05:05:19.790Z,16.47
2019-04-19T05:07:58.357Z,16.57
2019-04-19T05:10:21.649Z,17.23
2019-04-19T05:13:12.224Z,15.17
2019-04-19T05:15:26.270Z,15.50
2019-04-19T05:18:18.705Z,16.87
2019-04-19T05:20:22.675Z,17.43
2019-04-19T05:22:55.283Z,17.00
2019-04-19T05:25:30.812Z,16.80
2019-04-19T05:27:55.536Z,16.77
2019-04-19T05:30:09.109Z,16.53
2019-04-19T05:32:43.513Z,16.50
2019-04-19T05:35:24.182Z,16.10
2019-04-19T05:38:03.417Z,16.30
2019-04-19T05:40:47.486Z,16.70
2019-04-19T05:43:50.015Z,15.63
2019-04-19T05:46:05.141Z,16.40
2019-04-19T05:48:27.347Z,16.53
2019-04-19T05:51:12.956Z,17.70
2019-04-19T05:53:24.544Z,16.33
2019-04-19T05:55:41.120Z,17.00
2019-04-19T05:58:20.351Z,16.23
2019-04-19T06:00:55.309Z,16.67
2019-04-19T06:03:21.651Z,16.07
2019-04-19T06:06:10.857Z,17.03
2019-04-19T06:08:20.904Z,16.57
2019-04-19T06:10:52.272Z,15.33
2019-04-19T06:13:17.086Z,17.57
2019-04-19T06:16:05.623Z,16.60
2019-04-19T06:18:38.105Z,17.30
2019-04-19T06:21:17.267Z,16.63
2019-04-19T06:23:48.379Z,17.30
2019-04-19T06:26:46.482Z,16.93
2019-04-19T06:28:51.916Z,16.50
2019-04-19T06:31:19.527Z,16.73
2019-04-19T06:33:42.945Z,16.47
2019-04-19T06:35:59.512Z,16.60
2019-04-19T06:38:24.979Z,16.30
2019-04-19T06:41:01.518Z,17.10
2019-04-19T06:43:35.977Z,17.10
2019-04-19T06:46:09.348Z,15.70
2019-04-19T06:48:29.577Z,16.83
2019-04-19T06:50:59.094Z,17.30
2019-04-19T06:53:31.052Z,16.50
2019-04-19T06:56:07.987Z,16.67
2019-04-19T06:58:32.769Z,17.80
2019-04-19T07:01:10.730Z,16.30
2019-04-19T07:03:25.788Z,16.90
2019-04-19T07:06:09.065Z,16.70
2019-04-19T07:11:16.395Z,18.57
2019-04-19T07:13:38.515Z,16.70
2019-04-19T07:16:19.312Z,16.43
2019-04-19T07:18:39.292Z,16.80
2019-04-19T07:21:16.305Z,17.73
2019-04-19T07:23:49.789Z,16.73
2019-04-19T07:26:25.007Z,15.93
2019-04-19T07:28:33.263Z,18.00
2019-04-19T07:31:03.193Z,17.07
2019-04-19T07:33:39.981Z,17.40
2019-04-19T07:36:17.094Z,16.93
2019-04-19T07:38:53.790Z,16.97
2019-04-19T07:41:17.798Z,16.77
2019-04-19T07:44:01.284Z,18.40
2019-04-19T07:46:41.099Z,17.70
2019-04-19T07:48:55.349Z,16.90
2019-04-19T07:51:30.005Z,18.00
2019-04-19T07:53:55.272Z,17.07
2019-04-19T07:56:40.424Z,17.40
2019-04-19T07:59:24.736Z,17.67
2019-04-19T08:02:07.346Z,16.97
2019-04-19T08:04:37.829Z,16.77
2019-04-19T08:06:53.962Z,16.00
2019-04-19T08:14:22.677Z,16.40
2019-04-19T08:17:31.168Z,16.37
2019-04-19T08:29:13.295Z,16.73
2019-04-19T08:31:29.578Z,16.33
2019-04-19T08:34:02.670Z,15.90
2019-04-19T08:36:33.054Z,16.20
2019-04-19T08:39:19.045Z,15.67
2019-04-19T08:41:46.692Z,14.80
2019-04-19T08:44:18.020Z,15.80
2019-04-19T08:46:32.599Z,15.63
2019-04-19T08:49:05.659Z,19.53
2019-04-19T08:51:45.228Z,20.40
2019-04-19T08:54:36.959Z,15.80
2019-04-19T08:56:53.700Z,15.73
2019-04-19T08:59:38.693Z,15.63
2019-04-19T09:02:05.609Z,17.13
2019-04-19T09:04:34.773Z,16.43
2019-04-19T09:09:35.521Z,17.57
2019-04-19T09:12:06.565Z,15.27
2019-04-19T09:14:38.079Z,14.70
2019-04-19T09:17:14.225Z,15.17
2019-04-19T09:19:58.024Z,14.83
2019-04-19T09:22:04.404Z,15.90
2019-04-19T09:24:30.956Z,14.57
2019-04-19T09:27:01.325Z,15.57
2019-04-19T09:29:40.408Z,14.90
2019-04-19T09:31:56.031Z,15.50
2019-04-19T09:34:21.538Z,15.80
2019-04-19T09:37:01.431Z,15.07
2019-04-19T09:39:34.795Z,15.53
2019-04-19T09:41:57.434Z,15.80
2019-04-19T09:44:29.093Z,15.10
2019-04-19T09:46:50.814Z,15.60
2019-04-19T09:49:40.771Z,15.47
2019-04-19T09:52:03.278Z,14.40
2019-04-19T09:54:45.903Z,14.80
2019-04-19T09:57:07.052Z,14.13
2019-04-19T09:59:27.857Z,14.40
2019-04-19T10:01:57.378Z,16.10
2019-04-19T10:04:21.044Z,14.20
2019-04-19T10:06:49.526Z,14.80
2019-04-19T10:09:21.872Z,14.17
2019-04-19T10:11:48.657Z,14.30
2019-04-19T10:14:17.378Z,14.80
2019-04-19T10:16:48.452Z,14.17
2019-04-19T10:19:17.070Z,15.60
2019-04-19T10:21:49.931Z,14.13
2019-04-19T10:24:20.950Z,13.80
2019-04-19T10:26:53.012Z,14.90
2019-04-19T10:29:27.127Z,15.10
2019-04-19T10:31:57.162Z,16.30
2019-04-19T10:34:26.504Z,14.50
2019-04-19T10:36:57.025Z,14.80
2019-04-19T10:39:27.662Z,21.73
2019-04-19T10:41:56.537Z,14.40
2019-04-19T10:44:26.997Z,14.50
2019-04-19T10:46:56.627Z,14.63
2019-04-19T10:49:33.494Z,14.30
2019-04-19T10:51:56.865Z,15.13
2019-04-19T10:54:26.605Z,14.43
2019-04-19T10:57:12.912Z,15.30
2019-04-19T10:59:42.546Z,41.87
2019-04-19T11:02:11.218Z,15.40
2019-04-19T11:04:40.614Z,15.57
2019-04-19T11:07:09.589Z,14.30
2019-04-19T11:09:38.109Z,14.47
2019-04-19T11:12:07.993Z,14.30
2019-04-19T11:14:36.539Z,14.50
2019-04-19T11:17:07.445Z,14.60
2019-04-19T11:19:52.154Z,14.37
2019-04-19T11:22:07.705Z,14.60
2019-04-19T11:24:36.465Z,14.00
2019-04-19T11:27:05.292Z,14.90
2019-04-19T11:29:34.523Z,14.30
2019-04-19T11:32:10.456Z,14.03
2019-04-19T11:34:40.923Z,14.90
2019-04-19T11:37:13.194Z,13.73
2019-04-19T11:39:41.336Z,14.10
2019-04-19T11:42:10.218Z,13.87
2019-04-19T11:44:39.513Z,14.63
2019-04-19T11:47:08.974Z,14.10
2019-04-19T11:49:40.899Z,14.17
2019-04-19T11:52:11.222Z,19.53
2019-04-19T11:54:39.629Z,13.03
2019-04-19T11:57:10.859Z,13.83
2019-04-19T11:59:48.869Z,13.43
2019-04-19T12:02:20.795Z,12.95
2019-04-19T12:04:48.428Z,12.65
2019-04-19T12:07:16.923Z,12.50
2019-04-19T12:09:45.367Z,12.68
2019-04-19T12:12:14.971Z,13.50
2019-04-19T12:14:46.038Z,11.83
2019-04-19T12:17:15.248Z,20.40
2019-04-19T12:19:50.480Z,12.03
2019-04-19T12:22:14.922Z,12.00
2019-04-19T12:24:44.684Z,12.10
2019-04-19T12:27:13.856Z,11.55
2019-04-19T12:29:47.777Z,12.75
2019-04-19T12:32:12.636Z,12.25
2019-04-19T12:34:44.598Z,11.75
2019-04-19T12:37:11.648Z,11.70
2019-04-19T12:39:41.108Z,11.45
2019-04-19T12:42:11.399Z,12.20
2019-04-19T12:44:40.606Z,12.50
2019-04-19T12:47:11.036Z,12.18
2019-04-19T12:49:51.068Z,11.30
2019-04-19T12:52:10.184Z,11.78
2019-04-19T12:54:39.316Z,11.68
2019-04-19T12:57:07.915Z,11.38
2019-04-19T12:59:36.401Z,11.10
2019-04-19T13:02:06.504Z,11.60
2019-04-19T13:04:36.609Z,11.30
2019-04-19T13:07:06.814Z,11.73
2019-04-19T13:09:35.183Z,11.95
2019-04-19T13:12:05.191Z,13.95
2019-04-19T13:14:33.645Z,13.22
2019-04-19T13:17:02.224Z,12.17
2019-04-19T13:19:31.266Z,13.00
2019-04-19T13:22:00.593Z,12.00
2019-04-19T13:24:29.181Z,12.80
2019-04-19T13:26:59.081Z,12.50
2019-04-19T13:29:27.897Z,13.00
2019-04-19T13:31:56.735Z,13.40
2019-04-19T13:34:25.369Z,13.80
2019-04-19T13:37:13.823Z,14.17
2019-04-19T13:39:46.636Z,13.90
2019-04-19T13:42:17.132Z,14.33
2019-04-19T13:44:45.544Z,11.60
2019-04-19T13:47:14.004Z,13.20
2019-04-19T13:49:42.611Z,14.00
2019-04-19T13:52:12.643Z,17.90
2019-04-19T13:54:41.312Z,18.23
2019-04-19T13:57:11.056Z,13.73
2019-04-19T13:59:48.159Z,14.13
2019-04-19T14:02:10.578Z,13.03
2019-04-19T14:04:39.730Z,13.03
2019-04-19T14:07:09.375Z,13.83
2019-04-19T14:09:39.242Z,12.67
2019-04-19T14:12:09.262Z,12.33
2019-04-19T14:14:39.021Z,13.00
2019-04-19T14:17:07.674Z,13.50
2019-04-19T14:19:36.738Z,15.13
2019-04-19T14:22:06.877Z,13.67
2019-04-19T14:24:35.604Z,13.50
2019-04-19T14:27:05.785Z,13.33
2019-04-19T14:29:35.188Z,13.70
2019-04-19T14:32:05.238Z,12.60
2019-04-19T14:34:35.214Z,13.23
2019-04-19T14:37:04.542Z,13.30
2019-04-19T14:39:34.305Z,12.70
2019-04-19T14:42:03.498Z,12.70
2019-04-19T14:44:33.614Z,11.90
2019-04-19T14:47:03.155Z,12.50
2019-04-19T14:49:32.737Z,12.47
2019-04-19T14:52:01.467Z,11.53
2019-04-19T14:54:30.053Z,12.13
2019-04-19T14:56:58.887Z,12.57
2019-04-19T14:59:27.349Z,12.37
2019-04-19T15:02:13.141Z,12.50
2019-04-19T15:04:46.886Z,11.53
2019-04-19T15:07:16.594Z,12.50
2019-04-19T15:09:45.891Z,11.50
2019-04-19T15:12:14.456Z,12.33
2019-04-19T15:14:43.010Z,12.20
2019-04-19T15:17:11.798Z,12.63
2019-04-19T15:19:40.297Z,12.70
2019-04-19T15:22:08.766Z,12.47
2019-04-19T15:24:37.216Z,11.83
2019-04-19T15:27:05.684Z,12.33
2019-04-19T15:29:34.698Z,12.80
2019-04-19T15:32:04.145Z,12.53
2019-04-19T15:34:33.710Z,13.50
2019-04-19T15:37:04.038Z,13.07
2019-04-19T15:39:33.742Z,11.93
2019-04-19T15:42:02.511Z,12.50
2019-04-19T15:44:30.893Z,14.00
2019-04-19T15:47:00.143Z,12.30
2019-04-19T15:49:28.589Z,12.93
2019-04-19T15:51:57.452Z,12.93
2019-04-19T15:54:26.406Z,13.70
2019-04-19T15:56:54.845Z,12.30
2019-04-19T15:59:26.630Z,12.17
2019-04-19T16:01:55.972Z,12.13
2019-04-19T16:04:43.934Z,13.37
2019-04-19T16:07:32.196Z,12.20
2019-04-19T16:10:12.960Z,12.97
2019-04-19T16:12:44.013Z,12.70
2019-04-19T16:15:13.970Z,11.90
2019-04-19T16:17:43.734Z,12.23
2019-04-19T16:20:13.404Z,13.03
2019-04-19T16:22:42.426Z,12.50
2019-04-19T16:25:11.308Z,11.80
2019-04-19T16:27:42.012Z,12.60
2019-04-19T16:30:10.321Z,12.37
2019-04-19T16:32:39.095Z,12.03
2019-04-19T16:35:07.944Z,12.33
2019-04-19T16:37:37.180Z,12.00
2019-04-19T16:40:09.875Z,18.27
2019-04-19T16:42:38.997Z,12.70
2019-04-19T16:45:08.223Z,12.77
2019-04-19T16:47:37.505Z,13.30
2019-04-19T16:50:07.122Z,12.80
2019-04-19T16:52:36.458Z,12.97
2019-04-19T16:55:07.389Z,12.50
2019-04-19T16:57:36.482Z,12.43
2019-04-19T17:00:13.003Z,12.00
2019-04-19T17:02:42.908Z,11.93
2019-04-19T17:05:12.672Z,12.33
2019-04-19T17:07:41.665Z,13.27
2019-04-19T17:10:10.206Z,12.43
2019-04-19T17:12:39.652Z,12.23
2019-04-19T17:15:10.752Z,12.00
2019-04-19T17:17:50.932Z,12.20
2019-04-19T17:20:33.999Z,12.57
2019-04-19T17:23:02.791Z,12.10
2019-04-19T17:25:31.266Z,12.80
2019-04-19T17:28:00.954Z,13.67
2019-04-19T17:30:36.378Z,13.40
2019-04-19T17:33:06.173Z,13.07
2019-04-19T17:35:34.814Z,12.70
2019-04-19T17:38:03.299Z,12.40
2019-04-19T17:40:32.389Z,12.00
2019-04-19T17:43:01.373Z,35.90
2019-04-19T17:45:29.881Z,22.70
2019-04-19T17:47:58.554Z,12.83
2019-04-19T17:50:27.118Z,12.20
2019-04-19T17:52:56.688Z,12.20
2019-04-19T17:55:31.011Z,12.20
2019-04-19T17:57:56.942Z,12.40
2019-04-19T18:00:26.108Z,11.87
2019-04-19T18:02:55.254Z,12.17
2019-04-19T18:05:24.279Z,11.50
2019-04-19T18:07:53.925Z,11.63
2019-04-19T18:10:27.195Z,10.87
2019-04-19T18:12:53.170Z,11.23
2019-04-19T18:15:22.119Z,11.00
2019-04-19T18:17:55.558Z,10.60
2019-04-19T18:20:22.960Z,10.80
2019-04-19T18:23:00.742Z,11.63
2019-04-19T18:25:22.180Z,11.20
2019-04-19T18:27:53.825Z,11.53
2019-04-19T18:30:22.153Z,11.50
2019-04-19T18:32:55.032Z,11.00
2019-04-19T18:35:29.024Z,11.73
2019-04-19T18:37:53.604Z,12.00
2019-04-19T18:40:22.181Z,11.70
2019-04-19T18:43:06.409Z,11.93
2019-04-19T18:45:25.096Z,12.53
2019-04-19T18:47:51.191Z,12.10
2019-04-19T18:50:20.331Z,11.77
2019-04-19T18:52:53.646Z,12.20
2019-04-19T18:55:27.518Z,12.10
2019-04-19T18:57:49.978Z,11.67
2019-04-19T19:00:18.965Z,11.50
2019-04-19T19:02:53.871Z,12.30
2019-04-19T19:05:18.251Z,11.30
2019-04-19T19:07:49.335Z,12.13
2019-04-19T19:10:24.595Z,11.50
2019-04-19T19:12:49.610Z,11.80
2019-04-19T19:15:18.677Z,13.67
2019-04-19T19:17:50.811Z,11.80
2019-04-19T19:20:22.455Z,12.23
2019-04-19T19:23:05.527Z,11.13
2019-04-19T19:25:34.332Z,10.57
2019-04-19T19:27:50.414Z,11.50
2019-04-19T19:30:20.757Z,11.90
2019-04-19T19:32:53.960Z,11.30
2019-04-19T19:35:23.154Z,11.30
2019-04-19T19:37:50.844Z,11.00
2019-04-19T19:40:29.441Z,10.70
2019-04-19T19:43:18.125Z,11.03
2019-04-19T19:45:36.644Z,10.17
2019-04-19T19:48:26.106Z,10.60
2019-04-19T19:50:58.624Z,10.57
2019-04-19T19:53:35.454Z,10.93
2019-04-19T19:55:54.834Z,10.60
2019-04-19T19:58:19.829Z,10.37
2019-04-19T20:00:56.785Z,11.10
2019-04-19T20:03:13.581Z,11.20
2019-04-19T20:05:40.233Z,10.40
2019-04-19T20:08:07.871Z,10.37
2019-04-19T20:10:40.651Z,10.23
2019-04-19T20:13:11.230Z,10.40
2019-04-19T20:15:40.662Z,11.23
2019-04-19T20:18:08.407Z,10.57
2019-04-19T20:20:40.834Z,9.90
2019-04-19T20:23:12.256Z,10.57
2019-04-19T20:25:46.383Z,10.27
2019-04-19T20:28:16.307Z,10.57
2019-04-19T20:30:43.011Z,9.93
2019-04-19T20:33:12.594Z,9.67
2019-04-19T20:35:40.979Z,10.37
2019-04-19T20:38:12.656Z,9.90
2019-04-19T20:40:49.321Z,10.50
2019-04-19T20:43:30.591Z,10.70
2019-04-19T20:45:46.161Z,10.57
2019-04-19T20:48:16.197Z,10.93
2019-04-19T20:50:52.372Z,10.73
2019-04-19T20:53:21.923Z,10.80
2019-04-19T20:56:20.492Z,10.40
2019-04-19T20:58:27.975Z,10.40
2019-04-19T21:00:50.443Z,10.83
2019-04-19T21:03:26.207Z,11.00
2019-04-19T21:05:50.907Z,10.50
2019-04-19T21:08:25.255Z,10.37
2019-04-19T21:10:59.564Z,11.03
2019-04-19T21:13:25.262Z,11.30
2019-04-19T21:15:54.383Z,11.20
2019-04-19T21:18:25.818Z,11.30
2019-04-19T21:20:55.791Z,11.93
2019-04-19T21:23:27.463Z,11.37
2019-04-19T21:25:57.822Z,11.30
2019-04-19T21:28:35.550Z,11.30
2019-04-19T21:30:59.919Z,10.63
2019-04-19T21:33:27.038Z,10.70
2019-04-19T21:36:00.845Z,10.93
2019-04-19T21:38:27.205Z,10.47
2019-04-19T21:40:56.039Z,10.60
2019-04-19T21:43:28.456Z,10.40
2019-04-19T21:45:55.118Z,10.80
2019-04-19T21:48:26.981Z,10.30
2019-04-19T21:50:55.349Z,10.80
2019-04-19T21:53:25.848Z,10.50
2019-04-19T21:56:02.129Z,10.57
2019-04-19T21:58:25.079Z,10.17
2019-04-19T22:01:02.498Z,10.60
2019-04-19T22:03:30.594Z,10.23
2019-04-19T22:06:03.991Z,10.13
2019-04-19T22:08:33.319Z,10.33
2019-04-19T22:11:00.490Z,10.70
2019-04-19T22:13:33.303Z,10.60
2019-04-19T22:16:01.931Z,10.20
2019-04-19T22:18:32.333Z,10.30
2019-04-19T22:21:03.721Z,10.93
2019-04-19T22:23:30.977Z,10.60
2019-04-19T22:26:13.045Z,11.10
2019-04-19T22:28:30.027Z,11.00
2019-04-19T22:31:00.253Z,11.20
2019-04-19T22:33:28.785Z,10.30
2019-04-19T22:36:00.702Z,10.67
2019-04-19T22:38:27.680Z,11.00
2019-04-19T22:40:59.028Z,10.70
2019-04-19T22:43:26.859Z,10.57
2019-04-19T22:46:01.809Z,10.50
2019-04-19T22:48:26.672Z,10.30
2019-04-19T22:50:58.273Z,10.37
2019-04-19T22:53:32.131Z,10.57
2019-04-19T22:56:08.114Z,10.80
2019-04-19T22:58:29.961Z,11.10
2019-04-19T23:00:59.021Z,10.60
2019-04-19T23:03:33.632Z,11.10
2019-04-19T23:05:59.569Z,10.90
2019-04-19T23:08:33.206Z,10.57
2019-04-19T23:11:02.336Z,11.00
2019-04-19T23:13:29.702Z,10.00
2019-04-19T23:16:04.010Z,10.20
2019-04-19T23:18:30.390Z,11.20
2019-04-19T23:21:05.527Z,11.03
2019-04-19T23:23:31.678Z,10.80
2019-04-19T23:26:13.641Z,11.00
2019-04-19T23:28:34.774Z,10.73
2019-04-19T23:31:08.235Z,10.60
2019-04-19T23:33:30.292Z,10.60
2019-04-19T23:35:59.598Z,11.47
2019-04-19T23:38:30.834Z,10.93
2019-04-19T23:40:59.290Z,11.53
2019-04-19T23:43:34.242Z,10.80
2019-04-19T23:45:58.129Z,10.40
2019-04-19T23:48:31.472Z,17.67
2019-04-19T23:50:57.088Z,11.27
2019-04-19T23:53:32.915Z,10.90
2019-04-19T23:55:56.369Z,10.33
2019-04-19T23:58:29.541Z,11.07
